sensor_id;sensor_type;location;lat;lon;timestamp;P1;durP1;ratioP1;P2;durP2;ratioP2
19675;SDS011;39539;52.202;9.876;2022-12-18T00:00:57;21.93;;;15.10;;
19675;SDS011;39539;52.202;9.876;2022-12-18T00:03:22;23.03;;;15.50;;
19675;SDS011;39539;52.202;9.876;2022-12-18T00:05:48;23.93;;;16.93;;
19675;SDS011;39539;52.202;9.876;2022-12-18T00:08:18;21.90;;;16.53;;
19675;SDS011;39539;52.202;9.876;2022-12-18T00:10:44;22.80;;;16.17;;
19675;SDS011;39539;52.202;9.876;2022-12-18T00:13:10;18.60;;;14.00;;
19675;SDS011;39539;52.202;9.876;2022-12-18T00:15:37;17.83;;;14.80;;
19675;SDS011;39539;52.202;9.876;2022-12-18T00:18:03;20.60;;;16.57;;
19675;SDS011;39539;52.202;9.876;2022-12-18T00:20:30;23.47;;;17.73;;
19675;SDS011;39539;52.202;9.876;2022-12-18T00:22:55;22.90;;;17.57;;
19675;SDS011;39539;52.202;9.876;2022-12-18T00:25:21;31.40;;;18.10;;
19675;SDS011;39539;52.202;9.876;2022-12-18T00:27:47;25.60;;;17.60;;
19675;SDS011;39539;52.202;9.876;2022-12-18T00:30:13;28.80;;;18.60;;
19675;SDS011;39539;52.202;9.876;2022-12-18T00:32:39;34.90;;;19.43;;
19675;SDS011;39539;52.202;9.876;2022-12-18T00:35:05;30.93;;;18.80;;
19675;SDS011;39539;52.202;9.876;2022-12-18T00:37:31;26.57;;;18.27;;
19675;SDS011;39539;52.202;9.876;2022-12-18T00:39:58;28.13;;;18.07;;
19675;SDS011;39539;52.202;9.876;2022-12-18T00:42:24;24.50;;;18.13;;
19675;SDS011;39539;52.202;9.876;2022-12-18T00:45:08;22.37;;;17.20;;
19675;SDS011;39539;52.202;9.876;2022-12-18T00:47:33;23.50;;;16.37;;
19675;SDS011;39539;52.202;9.876;2022-12-18T00:49:58;22.70;;;16.50;;
19675;SDS011;39539;52.202;9.876;2022-12-18T00:52:24;23.30;;;16.27;;
19675;SDS011;39539;52.202;9.876;2022-12-18T00:54:49;22.40;;;16.13;;
19675;SDS011;39539;52.202;9.876;2022-12-18T00:57:15;21.97;;;17.13;;
19675;SDS011;39539;52.202;9.876;2022-12-18T00:59:40;23.87;;;15.80;;
19675;SDS011;39539;52.202;9.876;2022-12-18T01:02:05;23.10;;;16.50;;
19675;SDS011;39539;52.202;9.876;2022-12-18T01:04:31;22.87;;;15.30;;
19675;SDS011;39539;52.202;9.876;2022-12-18T01:06:57;21.03;;;16.27;;
19675;SDS011;39539;52.202;9.876;2022-12-18T01:09:23;22.57;;;15.97;;
19675;SDS011;39539;52.202;9.876;2022-12-18T01:11:48;20.17;;;15.80;;
19675;SDS011;39539;52.202;9.876;2022-12-18T01:14:13;25.00;;;16.53;;
19675;SDS011;39539;52.202;9.876;2022-12-18T01:16:39;21.40;;;15.47;;
19675;SDS011;39539;52.202;9.876;2022-12-18T01:19:04;23.30;;;16.90;;
19675;SDS011;39539;52.202;9.876;2022-12-18T01:21:29;18.77;;;16.03;;
19675;SDS011;39539;52.202;9.876;2022-12-18T01:23:55;24.90;;;15.80;;
19675;SDS011;39539;52.202;9.876;2022-12-18T01:26:21;25.40;;;16.20;;
19675;SDS011;39539;52.202;9.876;2022-12-18T01:28:47;18.03;;;14.77;;
19675;SDS011;39539;52.202;9.876;2022-12-18T01:31:17;21.97;;;15.07;;
19675;SDS011;39539;52.202;9.876;2022-12-18T01:33:48;16.30;;;13.80;;
19675;SDS011;39539;52.202;9.876;2022-12-18T01:36:21;17.47;;;14.03;;
19675;SDS011;39539;52.202;9.876;2022-12-18T01:38:49;18.13;;;14.20;;
19675;SDS011;39539;52.202;9.876;2022-12-18T01:41:15;18.33;;;14.67;;
19675;SDS011;39539;52.202;9.876;2022-12-18T01:43:50;16.60;;;13.93;;
19675;SDS011;39539;52.202;9.876;2022-12-18T01:46:20;17.87;;;13.57;;
19675;SDS011;39539;52.202;9.876;2022-12-18T01:48:48;19.50;;;12.67;;
19675;SDS011;39539;52.202;9.876;2022-12-18T01:51:16;17.20;;;12.97;;
19675;SDS011;39539;52.202;9.876;2022-12-18T01:53:42;17.93;;;13.10;;
19675;SDS011;39539;52.202;9.876;2022-12-18T01:56:08;17.50;;;12.43;;
19675;SDS011;39539;52.202;9.876;2022-12-18T01:58:45;15.40;;;12.33;;
19675;SDS011;39539;52.202;9.876;2022-12-18T02:01:11;15.80;;;11.97;;
19675;SDS011;39539;52.202;9.876;2022-12-18T02:03:36;19.80;;;13.33;;
19675;SDS011;39539;52.202;9.876;2022-12-18T02:06:10;15.43;;;11.60;;
19675;SDS011;39539;52.202;9.876;2022-12-18T02:11:32;16.87;;;12.27;;
19675;SDS011;39539;52.202;9.876;2022-12-18T02:17:07;16.43;;;11.73;;
19675;SDS011;39539;52.202;9.876;2022-12-18T02:24:40;13.43;;;10.23;;
19675;SDS011;39539;52.202;9.876;2022-12-18T02:27:18;10.67;;;9.23;;
19675;SDS011;39539;52.202;9.876;2022-12-18T02:29:47;11.23;;;9.07;;
19675;SDS011;39539;52.202;9.876;2022-12-18T02:32:24;10.73;;;8.73;;
19675;SDS011;39539;52.202;9.876;2022-12-18T02:34:53;11.90;;;8.90;;
19675;SDS011;39539;52.202;9.876;2022-12-18T02:37:22;11.50;;;8.80;;
19675;SDS011;39539;52.202;9.876;2022-12-18T02:39:49;9.30;;;8.00;;
19675;SDS011;39539;52.202;9.876;2022-12-18T02:42:20;11.73;;;8.73;;
19675;SDS011;39539;52.202;9.876;2022-12-18T02:44:48;11.57;;;8.33;;
19675;SDS011;39539;52.202;9.876;2022-12-18T02:47:20;11.73;;;8.27;;
19675;SDS011;39539;52.202;9.876;2022-12-18T02:49:54;10.80;;;8.13;;
19675;SDS011;39539;52.202;9.876;2022-12-18T02:57:55;8.73;;;7.87;;
19675;SDS011;39539;52.202;9.876;2022-12-18T03:00:37;8.97;;;8.07;;
19675;SDS011;39539;52.202;9.876;2022-12-18T03:06:06;9.20;;;8.07;;
19675;SDS011;39539;52.202;9.876;2022-12-18T03:08:37;12.80;;;8.77;;
19675;SDS011;39539;52.202;9.876;2022-12-18T03:11:07;10.63;;;8.23;;
19675;SDS011;39539;52.202;9.876;2022-12-18T03:13:35;10.50;;;8.57;;
19675;SDS011;39539;52.202;9.876;2022-12-18T03:16:05;10.10;;;7.90;;
19675;SDS011;39539;52.202;9.876;2022-12-18T03:18:47;9.23;;;8.27;;
19675;SDS011;39539;52.202;9.876;2022-12-18T03:21:17;9.73;;;8.73;;
19675;SDS011;39539;52.202;9.876;2022-12-18T03:23:47;10.93;;;8.57;;
19675;SDS011;39539;52.202;9.876;2022-12-18T03:26:17;9.47;;;8.47;;
19675;SDS011;39539;52.202;9.876;2022-12-18T03:28:51;10.53;;;9.07;;
19675;SDS011;39539;52.202;9.876;2022-12-18T03:31:22;11.37;;;8.67;;
19675;SDS011;39539;52.202;9.876;2022-12-18T03:33:54;10.77;;;8.77;;
19675;SDS011;39539;52.202;9.876;2022-12-18T03:36:23;14.10;;;9.13;;
19675;SDS011;39539;52.202;9.876;2022-12-18T03:38:49;12.03;;;7.93;;
19675;SDS011;39539;52.202;9.876;2022-12-18T03:43:50;10.60;;;8.23;;
19675;SDS011;39539;52.202;9.876;2022-12-18T03:49:10;10.67;;;8.10;;
19675;SDS011;39539;52.202;9.876;2022-12-18T03:51:46;8.03;;;7.03;;
19675;SDS011;39539;52.202;9.876;2022-12-18T03:54:17;8.97;;;7.20;;
19675;SDS011;39539;52.202;9.876;2022-12-18T03:56:50;7.90;;;6.47;;
19675;SDS011;39539;52.202;9.876;2022-12-18T03:59:23;8.03;;;6.20;;
19675;SDS011;39539;52.202;9.876;2022-12-18T04:01:51;9.00;;;7.03;;
19675;SDS011;39539;52.202;9.876;2022-12-18T04:04:19;11.37;;;7.23;;
19675;SDS011;39539;52.202;9.876;2022-12-18T04:06:46;9.30;;;7.27;;
19675;SDS011;39539;52.202;9.876;2022-12-18T04:09:14;9.70;;;7.60;;
19675;SDS011;39539;52.202;9.876;2022-12-18T04:11:40;9.43;;;7.80;;
19675;SDS011;39539;52.202;9.876;2022-12-18T04:14:08;8.33;;;6.97;;
19675;SDS011;39539;52.202;9.876;2022-12-18T04:16:34;9.77;;;7.90;;
19675;SDS011;39539;52.202;9.876;2022-12-18T04:18:59;9.80;;;7.43;;
19675;SDS011;39539;52.202;9.876;2022-12-18T04:21:26;11.50;;;7.80;;
19675;SDS011;39539;52.202;9.876;2022-12-18T04:23:51;7.87;;;6.77;;
19675;SDS011;39539;52.202;9.876;2022-12-18T04:26:17;9.27;;;7.67;;
19675;SDS011;39539;52.202;9.876;2022-12-18T04:28:42;9.53;;;8.03;;
19675;SDS011;39539;52.202;9.876;2022-12-18T04:31:07;8.80;;;7.60;;
19675;SDS011;39539;52.202;9.876;2022-12-18T04:33:33;10.00;;;8.03;;
19675;SDS011;39539;52.202;9.876;2022-12-18T04:35:58;10.20;;;8.00;;
19675;SDS011;39539;52.202;9.876;2022-12-18T04:38:23;9.27;;;7.40;;
19675;SDS011;39539;52.202;9.876;2022-12-18T04:40:49;7.70;;;6.93;;
19675;SDS011;39539;52.202;9.876;2022-12-18T04:43:14;6.70;;;6.00;;
19675;SDS011;39539;52.202;9.876;2022-12-18T04:45:39;8.10;;;6.73;;
19675;SDS011;39539;52.202;9.876;2022-12-18T04:48:05;7.00;;;6.30;;
19675;SDS011;39539;52.202;9.876;2022-12-18T04:50:31;8.17;;;6.83;;
19675;SDS011;39539;52.202;9.876;2022-12-18T04:52:56;7.77;;;6.97;;
19675;SDS011;39539;52.202;9.876;2022-12-18T04:55:22;9.33;;;7.77;;
19675;SDS011;39539;52.202;9.876;2022-12-18T04:57:50;9.00;;;8.20;;
19675;SDS011;39539;52.202;9.876;2022-12-18T05:00:17;8.10;;;7.37;;
19675;SDS011;39539;52.202;9.876;2022-12-18T05:02:44;7.83;;;7.13;;
19675;SDS011;39539;52.202;9.876;2022-12-18T05:05:09;7.67;;;6.93;;
19675;SDS011;39539;52.202;9.876;2022-12-18T05:07:35;10.40;;;7.50;;
19675;SDS011;39539;52.202;9.876;2022-12-18T05:10:00;9.80;;;7.13;;
19675;SDS011;39539;52.202;9.876;2022-12-18T05:12:26;7.23;;;6.50;;
19675;SDS011;39539;52.202;9.876;2022-12-18T05:14:51;9.30;;;6.93;;
19675;SDS011;39539;52.202;9.876;2022-12-18T05:17:17;7.80;;;7.00;;
19675;SDS011;39539;52.202;9.876;2022-12-18T05:19:42;7.83;;;7.03;;
19675;SDS011;39539;52.202;9.876;2022-12-18T05:22:08;7.03;;;6.37;;
19675;SDS011;39539;52.202;9.876;2022-12-18T05:24:34;10.07;;;6.87;;
19675;SDS011;39539;52.202;9.876;2022-12-18T05:26:59;6.83;;;6.13;;
19675;SDS011;39539;52.202;9.876;2022-12-18T05:29:25;9.03;;;7.37;;
19675;SDS011;39539;52.202;9.876;2022-12-18T05:31:50;7.53;;;6.73;;
19675;SDS011;39539;52.202;9.876;2022-12-18T05:34:16;7.77;;;6.63;;
19675;SDS011;39539;52.202;9.876;2022-12-18T05:36:41;7.70;;;6.90;;
19675;SDS011;39539;52.202;9.876;2022-12-18T05:39:06;7.60;;;6.83;;
19675;SDS011;39539;52.202;9.876;2022-12-18T05:41:32;7.90;;;6.23;;
19675;SDS011;39539;52.202;9.876;2022-12-18T05:43:57;6.80;;;6.13;;
19675;SDS011;39539;52.202;9.876;2022-12-18T05:46:23;9.23;;;7.07;;
19675;SDS011;39539;52.202;9.876;2022-12-18T05:48:49;7.67;;;6.90;;
19675;SDS011;39539;52.202;9.876;2022-12-18T05:51:16;8.60;;;6.47;;
19675;SDS011;39539;52.202;9.876;2022-12-18T05:53:44;7.00;;;6.30;;
19675;SDS011;39539;52.202;9.876;2022-12-18T05:56:12;7.17;;;6.37;;
19675;SDS011;39539;52.202;9.876;2022-12-18T05:58:39;7.30;;;6.60;;
19675;SDS011;39539;52.202;9.876;2022-12-18T06:01:09;8.13;;;7.10;;
19675;SDS011;39539;52.202;9.876;2022-12-18T06:03:43;8.88;;;6.70;;
19675;SDS011;39539;52.202;9.876;2022-12-18T06:06:18;6.60;;;6.00;;
19675;SDS011;39539;52.202;9.876;2022-12-18T06:08:46;7.10;;;6.40;;
19675;SDS011;39539;52.202;9.876;2022-12-18T06:11:12;6.87;;;6.20;;
19675;SDS011;39539;52.202;9.876;2022-12-18T06:13:38;7.27;;;5.93;;
19675;SDS011;39539;52.202;9.876;2022-12-18T06:16:06;7.50;;;6.13;;
19675;SDS011;39539;52.202;9.876;2022-12-18T06:18:33;6.43;;;5.83;;
19675;SDS011;39539;52.202;9.876;2022-12-18T06:20:59;6.10;;;5.50;;
19675;SDS011;39539;52.202;9.876;2022-12-18T06:23:25;6.37;;;5.73;;
19675;SDS011;39539;52.202;9.876;2022-12-18T06:25:51;6.23;;;5.63;;
19675;SDS011;39539;52.202;9.876;2022-12-18T06:28:16;6.47;;;5.80;;
19675;SDS011;39539;52.202;9.876;2022-12-18T06:30:45;8.20;;;6.03;;
19675;SDS011;39539;52.202;9.876;2022-12-18T06:33:15;7.53;;;5.53;;
19675;SDS011;39539;52.202;9.876;2022-12-18T06:35:42;5.70;;;5.10;;
19675;SDS011;39539;52.202;9.876;2022-12-18T06:38:07;5.93;;;5.33;;
19675;SDS011;39539;52.202;9.876;2022-12-18T06:40:33;6.80;;;6.10;;
19675;SDS011;39539;52.202;9.876;2022-12-18T06:42:58;5.63;;;4.80;;
19675;SDS011;39539;52.202;9.876;2022-12-18T06:45:24;8.20;;;5.10;;
19675;SDS011;39539;52.202;9.876;2022-12-18T06:47:49;7.33;;;5.43;;
19675;SDS011;39539;52.202;9.876;2022-12-18T06:50:15;7.27;;;5.53;;
19675;SDS011;39539;52.202;9.876;2022-12-18T06:52:41;6.10;;;5.43;;
19675;SDS011;39539;52.202;9.876;2022-12-18T06:55:08;5.30;;;4.80;;
19675;SDS011;39539;52.202;9.876;2022-12-18T06:57:34;5.40;;;4.90;;
19675;SDS011;39539;52.202;9.876;2022-12-18T07:00:00;8.33;;;6.43;;
19675;SDS011;39539;52.202;9.876;2022-12-18T07:02:25;6.40;;;5.70;;
19675;SDS011;39539;52.202;9.876;2022-12-18T07:04:51;5.87;;;5.27;;
19675;SDS011;39539;52.202;9.876;2022-12-18T07:07:16;7.23;;;5.53;;
19675;SDS011;39539;52.202;9.876;2022-12-18T07:09:41;6.77;;;5.60;;
19675;SDS011;39539;52.202;9.876;2022-12-18T07:12:08;7.63;;;5.90;;
19675;SDS011;39539;52.202;9.876;2022-12-18T07:14:34;6.57;;;5.67;;
19675;SDS011;39539;52.202;9.876;2022-12-18T07:16:59;10.43;;;5.50;;
19675;SDS011;39539;52.202;9.876;2022-12-18T07:19:25;5.80;;;5.17;;
19675;SDS011;39539;52.202;9.876;2022-12-18T07:21:50;6.40;;;5.70;;
19675;SDS011;39539;52.202;9.876;2022-12-18T07:24:16;7.27;;;5.73;;
19675;SDS011;39539;52.202;9.876;2022-12-18T07:26:41;6.33;;;5.60;;
19675;SDS011;39539;52.202;9.876;2022-12-18T07:29:06;7.43;;;5.90;;
19675;SDS011;39539;52.202;9.876;2022-12-18T07:31:32;7.10;;;5.43;;
19675;SDS011;39539;52.202;9.876;2022-12-18T07:33:58;6.63;;;5.47;;
19675;SDS011;39539;52.202;9.876;2022-12-18T07:36:23;7.90;;;5.57;;
19675;SDS011;39539;52.202;9.876;2022-12-18T07:38:49;6.73;;;5.50;;
19675;SDS011;39539;52.202;9.876;2022-12-18T07:41:14;6.30;;;5.40;;
19675;SDS011;39539;52.202;9.876;2022-12-18T07:43:40;5.80;;;4.97;;
19675;SDS011;39539;52.202;9.876;2022-12-18T07:46:06;6.10;;;5.20;;
19675;SDS011;39539;52.202;9.876;2022-12-18T07:48:33;6.43;;;5.00;;
19675;SDS011;39539;52.202;9.876;2022-12-18T07:51:03;6.07;;;5.40;;
19675;SDS011;39539;52.202;9.876;2022-12-18T07:53:30;6.73;;;5.87;;
19675;SDS011;39539;52.202;9.876;2022-12-18T07:55:57;7.80;;;7.00;;
19675;SDS011;39539;52.202;9.876;2022-12-18T07:58:23;6.53;;;5.93;;
19675;SDS011;39539;52.202;9.876;2022-12-18T08:00:49;7.23;;;6.53;;
19675;SDS011;39539;52.202;9.876;2022-12-18T08:03:14;8.23;;;6.87;;
19675;SDS011;39539;52.202;9.876;2022-12-18T08:05:39;10.33;;;8.80;;
19675;SDS011;39539;52.202;9.876;2022-12-18T08:08:05;8.77;;;7.80;;
19675;SDS011;39539;52.202;9.876;2022-12-18T08:10:30;12.23;;;8.73;;
19675;SDS011;39539;52.202;9.876;2022-12-18T08:12:55;9.47;;;8.47;;
19675;SDS011;39539;52.202;9.876;2022-12-18T08:15:21;7.13;;;4.77;;
19675;SDS011;39539;52.202;9.876;2022-12-18T08:17:46;7.37;;;5.90;;
19675;SDS011;39539;52.202;9.876;2022-12-18T08:20:12;7.90;;;6.60;;
19675;SDS011;39539;52.202;9.876;2022-12-18T08:22:39;7.80;;;6.63;;
19675;SDS011;39539;52.202;9.876;2022-12-18T08:25:06;6.85;;;6.15;;
19675;SDS011;39539;52.202;9.876;2022-12-18T08:27:31;5.93;;;5.37;;
19675;SDS011;39539;52.202;9.876;2022-12-18T08:29:57;7.30;;;5.97;;
19675;SDS011;39539;52.202;9.876;2022-12-18T08:32:22;6.30;;;5.13;;
19675;SDS011;39539;52.202;9.876;2022-12-18T08:34:49;6.33;;;5.73;;
19675;SDS011;39539;52.202;9.876;2022-12-18T08:37:14;5.97;;;5.37;;
19675;SDS011;39539;52.202;9.876;2022-12-18T08:39:39;5.43;;;4.93;;
19675;SDS011;39539;52.202;9.876;2022-12-18T08:42:05;6.53;;;5.53;;
19675;SDS011;39539;52.202;9.876;2022-12-18T08:44:49;6.20;;;4.33;;
19675;SDS011;39539;52.202;9.876;2022-12-18T08:47:14;5.73;;;5.20;;
19675;SDS011;39539;52.202;9.876;2022-12-18T08:49:40;5.40;;;4.90;;
19675;SDS011;39539;52.202;9.876;2022-12-18T08:52:05;6.70;;;6.00;;
19675;SDS011;39539;52.202;9.876;2022-12-18T08:54:31;4.97;;;4.57;;
19675;SDS011;39539;52.202;9.876;2022-12-18T08:56:56;5.00;;;4.53;;
19675;SDS011;39539;52.202;9.876;2022-12-18T08:59:21;5.28;;;4.78;;
19675;SDS011;39539;52.202;9.876;2022-12-18T09:01:48;5.50;;;5.00;;
19675;SDS011;39539;52.202;9.876;2022-12-18T09:04:13;5.13;;;4.57;;
19675;SDS011;39539;52.202;9.876;2022-12-18T09:06:39;6.38;;;5.00;;
19675;SDS011;39539;52.202;9.876;2022-12-18T09:09:04;5.88;;;5.32;;
19675;SDS011;39539;52.202;9.876;2022-12-18T09:11:30;5.10;;;4.63;;
19675;SDS011;39539;52.202;9.876;2022-12-18T09:13:57;6.50;;;5.03;;
19675;SDS011;39539;52.202;9.876;2022-12-18T09:16:24;6.05;;;5.55;;
19675;SDS011;39539;52.202;9.876;2022-12-18T09:18:50;6.07;;;5.00;;
19675;SDS011;39539;52.202;9.876;2022-12-18T09:21:19;5.20;;;4.47;;
19675;SDS011;39539;52.202;9.876;2022-12-18T09:23:49;5.10;;;4.60;;
19675;SDS011;39539;52.202;9.876;2022-12-18T09:26:15;4.72;;;4.32;;
19675;SDS011;39539;52.202;9.876;2022-12-18T09:28:40;4.80;;;4.40;;
19675;SDS011;39539;52.202;9.876;2022-12-18T09:31:07;4.47;;;4.10;;
19675;SDS011;39539;52.202;9.876;2022-12-18T09:33:33;5.45;;;3.80;;
19675;SDS011;39539;52.202;9.876;2022-12-18T09:36:02;4.50;;;3.47;;
19675;SDS011;39539;52.202;9.876;2022-12-18T09:38:29;4.15;;;3.75;;
19675;SDS011;39539;52.202;9.876;2022-12-18T09:40:57;3.58;;;3.28;;
19675;SDS011;39539;52.202;9.876;2022-12-18T09:43:29;2.70;;;2.50;;
19675;SDS011;39539;52.202;9.876;2022-12-18T09:46:01;3.03;;;2.83;;
19675;SDS011;39539;52.202;9.876;2022-12-18T09:48:38;2.63;;;2.42;;
19675;SDS011;39539;52.202;9.876;2022-12-18T09:51:10;3.60;;;3.30;;
19675;SDS011;39539;52.202;9.876;2022-12-18T09:53:41;2.88;;;2.67;;
19675;SDS011;39539;52.202;9.876;2022-12-18T09:56:16;4.25;;;3.72;;
19675;SDS011;39539;52.202;9.876;2022-12-18T10:01:27;3.50;;;3.20;;
19675;SDS011;39539;52.202;9.876;2022-12-18T10:03:53;2.90;;;2.70;;
19675;SDS011;39539;52.202;9.876;2022-12-18T10:06:35;3.55;;;2.85;;
19675;SDS011;39539;52.202;9.876;2022-12-18T10:09:21;3.03;;;2.72;;
19675;SDS011;39539;52.202;9.876;2022-12-18T13:04:19;9.27;;;8.45;;
19675;SDS011;39539;52.202;9.876;2022-12-18T13:06:51;10.95;;;9.82;;
19675;SDS011;39539;52.202;9.876;2022-12-18T13:09:20;12.73;;;11.48;;
19675;SDS011;39539;52.202;9.876;2022-12-18T13:11:46;12.38;;;11.18;;
19675;SDS011;39539;52.202;9.876;2022-12-18T13:14:31;12.60;;;11.40;;
19675;SDS011;39539;52.202;9.876;2022-12-18T13:20:02;11.97;;;10.87;;
19675;SDS011;39539;52.202;9.876;2022-12-18T13:25:32;11.27;;;9.88;;
19675;SDS011;39539;52.202;9.876;2022-12-18T13:28:00;11.10;;;9.77;;
19675;SDS011;39539;52.202;9.876;2022-12-18T13:41:26;10.88;;;9.48;;
19675;SDS011;39539;52.202;9.876;2022-12-18T13:43:55;9.82;;;8.85;;
19675;SDS011;39539;52.202;9.876;2022-12-18T13:46:47;9.80;;;8.50;;
19675;SDS011;39539;52.202;9.876;2022-12-18T13:49:35;9.17;;;8.20;;
19675;SDS011;39539;52.202;9.876;2022-12-18T13:52:03;8.63;;;7.73;;
19675;SDS011;39539;52.202;9.876;2022-12-18T13:54:45;9.65;;;8.50;;
19675;SDS011;39539;52.202;9.876;2022-12-18T13:57:29;10.32;;;9.32;;
19675;SDS011;39539;52.202;9.876;2022-12-18T14:00:14;10.48;;;9.40;;
19675;SDS011;39539;52.202;9.876;2022-12-18T14:02:47;11.55;;;8.82;;
19675;SDS011;39539;52.202;9.876;2022-12-18T14:05:47;11.95;;;10.75;;
19675;SDS011;39539;52.202;9.876;2022-12-18T14:08:10;11.82;;;10.63;;
19675;SDS011;39539;52.202;9.876;2022-12-18T14:10:42;14.93;;;11.80;;
19675;SDS011;39539;52.202;9.876;2022-12-18T14:13:10;12.20;;;10.83;;
19675;SDS011;39539;52.202;9.876;2022-12-18T14:15:41;14.20;;;12.70;;
19675;SDS011;39539;52.202;9.876;2022-12-18T14:21:20;12.90;;;11.57;;
19675;SDS011;39539;52.202;9.876;2022-12-18T14:26:32;10.50;;;9.50;;
19675;SDS011;39539;52.202;9.876;2022-12-18T14:29:01;12.00;;;10.60;;
19675;SDS011;39539;52.202;9.876;2022-12-18T14:31:43;14.20;;;10.40;;
19675;SDS011;39539;52.202;9.876;2022-12-18T14:34:18;11.85;;;10.65;;
19675;SDS011;39539;52.202;9.876;2022-12-18T14:36:53;11.35;;;9.93;;
19675;SDS011;39539;52.202;9.876;2022-12-18T14:39:20;10.80;;;9.77;;
19675;SDS011;39539;52.202;9.876;2022-12-18T14:41:48;12.53;;;10.40;;
19675;SDS011;39539;52.202;9.876;2022-12-18T14:44:14;12.80;;;11.07;;
19675;SDS011;39539;52.202;9.876;2022-12-18T14:46:42;15.98;;;11.95;;
19675;SDS011;39539;52.202;9.876;2022-12-18T14:52:42;11.68;;;10.48;;
19675;SDS011;39539;52.202;9.876;2022-12-18T14:55:00;11.17;;;9.80;;
19675;SDS011;39539;52.202;9.876;2022-12-18T14:57:29;11.87;;;10.77;;
19675;SDS011;39539;52.202;9.876;2022-12-18T15:00:06;10.35;;;9.25;;
19675;SDS011;39539;52.202;9.876;2022-12-18T15:02:50;17.47;;;10.07;;
19675;SDS011;39539;52.202;9.876;2022-12-18T15:05:27;11.20;;;10.10;;
19675;SDS011;39539;52.202;9.876;2022-12-18T15:08:01;10.90;;;9.80;;
19675;SDS011;39539;52.202;9.876;2022-12-18T15:10:34;11.15;;;9.75;;
19675;SDS011;39539;52.202;9.876;2022-12-18T15:20:33;11.35;;;10.15;;
19675;SDS011;39539;52.202;9.876;2022-12-18T15:23:46;11.67;;;10.43;;
19675;SDS011;39539;52.202;9.876;2022-12-18T15:26:02;11.65;;;10.52;;
19675;SDS011;39539;52.202;9.876;2022-12-18T15:28:37;12.63;;;11.37;;
19675;SDS011;39539;52.202;9.876;2022-12-18T15:33:38;13.43;;;12.03;;
19675;SDS011;39539;52.202;9.876;2022-12-18T15:36:15;13.13;;;10.97;;
19675;SDS011;39539;52.202;9.876;2022-12-18T15:38:50;13.50;;;12.30;;
19675;SDS011;39539;52.202;9.876;2022-12-18T15:41:18;12.40;;;11.10;;
19675;SDS011;39539;52.202;9.876;2022-12-18T15:43:47;13.27;;;10.33;;
19675;SDS011;39539;52.202;9.876;2022-12-18T15:46:16;12.57;;;11.43;;
19675;SDS011;39539;52.202;9.876;2022-12-18T15:48:44;13.00;;;11.70;;
19675;SDS011;39539;52.202;9.876;2022-12-18T15:54:00;14.10;;;12.00;;
19675;SDS011;39539;52.202;9.876;2022-12-18T15:56:28;16.13;;;12.90;;
19675;SDS011;39539;52.202;9.876;2022-12-18T15:59:17;14.33;;;12.83;;
19675;SDS011;39539;52.202;9.876;2022-12-18T16:01:49;15.37;;;12.60;;
19675;SDS011;39539;52.202;9.876;2022-12-18T16:04:19;17.50;;;13.10;;
19675;SDS011;39539;52.202;9.876;2022-12-18T16:06:45;13.83;;;12.43;;
19675;SDS011;39539;52.202;9.876;2022-12-18T16:09:11;12.67;;;11.37;;
19675;SDS011;39539;52.202;9.876;2022-12-18T16:11:37;13.63;;;12.00;;
19675;SDS011;39539;52.202;9.876;2022-12-18T16:14:18;18.63;;;12.13;;
19675;SDS011;39539;52.202;9.876;2022-12-18T16:16:46;13.53;;;12.13;;
19675;SDS011;39539;52.202;9.876;2022-12-18T16:19:15;15.23;;;13.23;;
19675;SDS011;39539;52.202;9.876;2022-12-18T16:21:41;13.90;;;12.40;;
19675;SDS011;39539;52.202;9.876;2022-12-18T16:24:26;15.33;;;13.23;;
19675;SDS011;39539;52.202;9.876;2022-12-18T16:26:55;16.58;;;13.52;;
19675;SDS011;39539;52.202;9.876;2022-12-18T16:29:22;14.60;;;13.07;;
19675;SDS011;39539;52.202;9.876;2022-12-18T16:31:55;13.73;;;12.30;;
19675;SDS011;39539;52.202;9.876;2022-12-18T16:34:23;15.03;;;13.30;;
19675;SDS011;39539;52.202;9.876;2022-12-18T16:36:55;14.63;;;12.20;;
19675;SDS011;39539;52.202;9.876;2022-12-18T16:39:21;16.57;;;13.87;;
19675;SDS011;39539;52.202;9.876;2022-12-18T16:41:47;13.83;;;12.43;;
19675;SDS011;39539;52.202;9.876;2022-12-18T16:44:13;12.60;;;11.32;;
19675;SDS011;39539;52.202;9.876;2022-12-18T16:46:39;11.52;;;10.30;;
19675;SDS011;39539;52.202;9.876;2022-12-18T16:49:08;12.85;;;11.55;;
19675;SDS011;39539;52.202;9.876;2022-12-18T16:51:34;13.10;;;11.82;;
19675;SDS011;39539;52.202;9.876;2022-12-18T16:53:59;14.23;;;12.82;;
19675;SDS011;39539;52.202;9.876;2022-12-18T16:56:25;14.00;;;12.60;;
19675;SDS011;39539;52.202;9.876;2022-12-18T16:58:51;13.10;;;11.43;;
19675;SDS011;39539;52.202;9.876;2022-12-18T17:01:18;13.03;;;11.73;;
19675;SDS011;39539;52.202;9.876;2022-12-18T17:03:44;11.20;;;10.00;;
19675;SDS011;39539;52.202;9.876;2022-12-18T17:06:15;11.87;;;10.53;;
19675;SDS011;39539;52.202;9.876;2022-12-18T17:08:41;12.50;;;11.27;;
19675;SDS011;39539;52.202;9.876;2022-12-18T17:11:06;12.90;;;10.97;;
19675;SDS011;39539;52.202;9.876;2022-12-18T17:13:32;13.50;;;12.10;;
19675;SDS011;39539;52.202;9.876;2022-12-18T17:16:02;11.88;;;10.65;;
19675;SDS011;39539;52.202;9.876;2022-12-18T17:18:28;11.57;;;10.47;;
19675;SDS011;39539;52.202;9.876;2022-12-18T17:20:57;13.65;;;12.35;;
19675;SDS011;39539;52.202;9.876;2022-12-18T17:23:36;11.63;;;10.43;;
19675;SDS011;39539;52.202;9.876;2022-12-18T17:26:03;12.10;;;10.90;;
19675;SDS011;39539;52.202;9.876;2022-12-18T17:28:34;12.88;;;11.68;;
19675;SDS011;39539;52.202;9.876;2022-12-18T17:30:59;10.60;;;9.50;;
19675;SDS011;39539;52.202;9.876;2022-12-18T17:33:25;11.60;;;10.50;;
19675;SDS011;39539;52.202;9.876;2022-12-18T17:35:51;10.90;;;9.85;;
19675;SDS011;39539;52.202;9.876;2022-12-18T17:38:18;10.93;;;9.93;;
19675;SDS011;39539;52.202;9.876;2022-12-18T17:40:45;10.88;;;9.85;;
19675;SDS011;39539;52.202;9.876;2022-12-18T17:43:10;10.95;;;9.85;;
19675;SDS011;39539;52.202;9.876;2022-12-18T17:45:36;10.65;;;9.63;;
19675;SDS011;39539;52.202;9.876;2022-12-18T17:48:03;11.15;;;9.68;;
19675;SDS011;39539;52.202;9.876;2022-12-18T17:50:31;6.90;;;6.20;;
19675;SDS011;39539;52.202;9.876;2022-12-18T17:52:58;7.40;;;6.70;;
19675;SDS011;39539;52.202;9.876;2022-12-18T17:55:24;6.03;;;5.45;;
19675;SDS011;39539;52.202;9.876;2022-12-18T17:57:49;4.60;;;4.20;;
19675;SDS011;39539;52.202;9.876;2022-12-18T18:00:15;6.22;;;5.38;;
19675;SDS011;39539;52.202;9.876;2022-12-18T18:02:40;5.97;;;5.47;;
19675;SDS011;39539;52.202;9.876;2022-12-18T18:05:06;6.07;;;5.30;;
19675;SDS011;39539;52.202;9.876;2022-12-18T18:07:32;5.80;;;5.20;;
19675;SDS011;39539;52.202;9.876;2022-12-18T18:09:57;6.93;;;6.22;;
19675;SDS011;39539;52.202;9.876;2022-12-18T18:12:23;6.30;;;5.70;;
19675;SDS011;39539;52.202;9.876;2022-12-18T18:15:07;8.40;;;6.40;;
19675;SDS011;39539;52.202;9.876;2022-12-18T18:17:33;7.72;;;7.05;;
19675;SDS011;39539;52.202;9.876;2022-12-18T18:19:59;7.07;;;6.25;;
19675;SDS011;39539;52.202;9.876;2022-12-18T18:22:25;8.18;;;7.47;;
19675;SDS011;39539;52.202;9.876;2022-12-18T18:24:50;6.20;;;5.53;;
19675;SDS011;39539;52.202;9.876;2022-12-18T18:27:16;6.32;;;5.72;;
19675;SDS011;39539;52.202;9.876;2022-12-18T18:29:41;5.55;;;5.05;;
19675;SDS011;39539;52.202;9.876;2022-12-18T18:32:07;6.43;;;5.72;;
19675;SDS011;39539;52.202;9.876;2022-12-18T18:34:32;5.78;;;5.07;;
19675;SDS011;39539;52.202;9.876;2022-12-18T18:36:58;6.07;;;5.32;;
19675;SDS011;39539;52.202;9.876;2022-12-18T18:39:24;5.63;;;5.13;;
19675;SDS011;39539;52.202;9.876;2022-12-18T18:41:49;5.95;;;5.45;;